sensor_id;sensor_type;location;lat;lon;timestamp;temperature;humidity
35970;DHT22;22448;51.298;6.430;2024-02-28T00:00:27;-0.30;99.90
35970;DHT22;22448;51.298;6.430;2024-02-28T00:03:12;-0.40;99.90
35970;DHT22;22448;51.298;6.430;2024-02-28T00:05:39;-0.40;99.90
35970;DHT22;22448;51.298;6.430;2024-02-28T00:08:06;-0.30;99.90
35970;DHT22;22448;51.298;6.430;2024-02-28T00:10:33;-0.40;99.90
35970;DHT22;22448;51.298;6.430;2024-02-28T00:13:00;-0.40;99.90
35970;DHT22;22448;51.298;6.430;2024-02-28T00:15:28;-0.40;99.90
35970;DHT22;22448;51.298;6.430;2024-02-28T00:17:55;-0.40;99.90
35970;DHT22;22448;51.298;6.430;2024-02-28T00:20:23;-0.40;99.90
35970;DHT22;22448;51.298;6.430;2024-02-28T00:22:50;-0.40;99.90
35970;DHT22;22448;51.298;6.430;2024-02-28T00:25:17;-0.40;99.90
35970;DHT22;22448;51.298;6.430;2024-02-28T00:27:45;-0.40;99.90
35970;DHT22;22448;51.298;6.430;2024-02-28T00:30:13;-0.50;99.90
35970;DHT22;22448;51.298;6.430;2024-02-28T00:32:40;-0.50;99.90
35970;DHT22;22448;51.298;6.430;2024-02-28T00:35:08;-0.60;99.90
35970;DHT22;22448;51.298;6.430;2024-02-28T00:37:35;-0.60;99.90
35970;DHT22;22448;51.298;6.430;2024-02-28T00:40:02;-0.60;99.90
35970;DHT22;22448;51.298;6.430;2024-02-28T00:42:30;-0.70;99.90
35970;DHT22;22448;51.298;6.430;2024-02-28T00:44:57;-0.70;99.90
35970;DHT22;22448;51.298;6.430;2024-02-28T00:47:24;-0.70;99.90
35970;DHT22;22448;51.298;6.430;2024-02-28T00:49:52;-0.70;99.90
35970;DHT22;22448;51.298;6.430;2024-02-28T00:52:19;-0.70;99.90
35970;DHT22;22448;51.298;6.430;2024-02-28T00:54:46;-0.80;99.90
35970;DHT22;22448;51.298;6.430;2024-02-28T00:57:13;-0.80;99.90
35970;DHT22;22448;51.298;6.430;2024-02-28T00:59:40;-0.80;99.90
35970;DHT22;22448;51.298;6.430;2024-02-28T01:02:09;-0.80;99.90
35970;DHT22;22448;51.298;6.430;2024-02-28T01:04:36;-0.80;99.90
35970;DHT22;22448;51.298;6.430;2024-02-28T01:07:03;-0.80;99.90
35970;DHT22;22448;51.298;6.430;2024-02-28T01:09:30;-0.80;99.90
35970;DHT22;22448;51.298;6.430;2024-02-28T01:11:58;-0.90;99.90
35970;DHT22;22448;51.298;6.430;2024-02-28T01:14:25;-0.80;99.90
35970;DHT22;22448;51.298;6.430;2024-02-28T01:16:52;-0.90;99.90
35970;DHT22;22448;51.298;6.430;2024-02-28T01:19:19;-0.90;99.90
35970;DHT22;22448;51.298;6.430;2024-02-28T01:21:46;-0.90;99.90
35970;DHT22;22448;51.298;6.430;2024-02-28T01:24:13;-1.00;99.90
35970;DHT22;22448;51.298;6.430;2024-02-28T01:26:40;-1.00;99.90
35970;DHT22;22448;51.298;6.430;2024-02-28T01:29:08;-0.90;99.90
35970;DHT22;22448;51.298;6.430;2024-02-28T01:31:35;-0.90;99.90
35970;DHT22;22448;51.298;6.430;2024-02-28T01:34:02;-0.90;99.90
35970;DHT22;22448;51.298;6.430;2024-02-28T01:36:29;-1.00;99.90
35970;DHT22;22448;51.298;6.430;2024-02-28T01:38:56;-1.00;99.90
35970;DHT22;22448;51.298;6.430;2024-02-28T01:41:23;-1.00;99.90
35970;DHT22;22448;51.298;6.430;2024-02-28T01:43:50;-1.00;99.90
35970;DHT22;22448;51.298;6.430;2024-02-28T01:46:23;-0.90;99.90
35970;DHT22;22448;51.298;6.430;2024-02-28T01:48:51;-0.90;99.90
35970;DHT22;22448;51.298;6.430;2024-02-28T01:51:21;-0.80;99.90
35970;DHT22;22448;51.298;6.430;2024-02-28T01:53:50;-0.70;99.90
35970;DHT22;22448;51.298;6.430;2024-02-28T01:56:19;-0.60;99.90
35970;DHT22;22448;51.298;6.430;2024-02-28T01:58:47;-0.50;99.90
35970;DHT22;22448;51.298;6.430;2024-02-28T02:01:15;-0.40;99.90
35970;DHT22;22448;51.298;6.430;2024-02-28T02:03:48;-0.30;99.90
35970;DHT22;22448;51.298;6.430;2024-02-28T02:06:15;-0.30;99.90
35970;DHT22;22448;51.298;6.430;2024-02-28T02:08:43;-0.20;99.90
35970;DHT22;22448;51.298;6.430;2024-02-28T02:11:10;-0.10;99.90
35970;DHT22;22448;51.298;6.430;2024-02-28T02:13:50;0.00;99.90
35970;DHT22;22448;51.298;6.430;2024-02-28T02:16:19;0.00;99.90
35970;DHT22;22448;51.298;6.430;2024-02-28T02:18:49;0.10;99.90
35970;DHT22;22448;51.298;6.430;2024-02-28T02:21:18;0.10;99.90
35970;DHT22;22448;51.298;6.430;2024-02-28T02:23:47;0.10;99.90
35970;DHT22;22448;51.298;6.430;2024-02-28T02:26:14;0.10;99.90
35970;DHT22;22448;51.298;6.430;2024-02-28T02:28:41;0.20;99.90
35970;DHT22;22448;51.298;6.430;2024-02-28T02:31:10;0.20;99.90
35970;DHT22;22448;51.298;6.430;2024-02-28T02:33:37;0.20;99.90
35970;DHT22;22448;51.298;6.430;2024-02-28T02:36:04;0.30;99.90
35970;DHT22;22448;51.298;6.430;2024-02-28T02:38:31;0.30;99.90
35970;DHT22;22448;51.298;6.430;2024-02-28T02:40:58;0.30;99.90
35970;DHT22;22448;51.298;6.430;2024-02-28T02:43:25;0.30;99.90
35970;DHT22;22448;51.298;6.430;2024-02-28T02:45:53;0.30;99.90
35970;DHT22;22448;51.298;6.430;2024-02-28T02:48:20;0.30;99.90
35970;DHT22;22448;51.298;6.430;2024-02-28T02:50:47;0.30;99.90
35970;DHT22;22448;51.298;6.430;2024-02-28T02:53:15;0.30;99.90
35970;DHT22;22448;51.298;6.430;2024-02-28T02:55:42;0.30;99.90
35970;DHT22;22448;51.298;6.430;2024-02-28T02:58:09;0.30;99.90
35970;DHT22;22448;51.298;6.430;2024-02-28T03:00:36;0.20;99.90
35970;DHT22;22448;51.298;6.430;2024-02-28T03:03:04;0.20;99.90
35970;DHT22;22448;51.298;6.430;2024-02-28T03:05:32;0.20;99.90
35970;DHT22;22448;51.298;6.430;2024-02-28T03:07:59;0.20;99.90
35970;DHT22;22448;51.298;6.430;2024-02-28T03:10:26;0.30;99.90
35970;DHT22;22448;51.298;6.430;2024-02-28T03:12:53;0.30;99.90
35970;DHT22;22448;51.298;6.430;2024-02-28T03:15:20;0.30;99.90
35970;DHT22;22448;51.298;6.430;2024-02-28T03:17:47;0.30;99.90
35970;DHT22;22448;51.298;6.430;2024-02-28T03:20:15;0.30;99.90
35970;DHT22;22448;51.298;6.430;2024-02-28T03:22:42;0.30;99.90
35970;DHT22;22448;51.298;6.430;2024-02-28T03:25:09;0.30;99.90
35970;DHT22;22448;51.298;6.430;2024-02-28T03:27:36;0.30;99.90
35970;DHT22;22448;51.298;6.430;2024-02-28T03:30:04;0.40;99.90
35970;DHT22;22448;51.298;6.430;2024-02-28T03:32:31;0.40;99.90
35970;DHT22;22448;51.298;6.430;2024-02-28T03:34:58;0.40;99.90
35970;DHT22;22448;51.298;6.430;2024-02-28T03:37:25;0.50;99.90
35970;DHT22;22448;51.298;6.430;2024-02-28T03:39:53;0.50;99.90
35970;DHT22;22448;51.298;6.430;2024-02-28T03:42:20;0.60;99.90
35970;DHT22;22448;51.298;6.430;2024-02-28T03:44:48;0.50;99.90
35970;DHT22;22448;51.298;6.430;2024-02-28T03:47:15;0.50;99.90
35970;DHT22;22448;51.298;6.430;2024-02-28T03:49:42;0.50;99.90
35970;DHT22;22448;51.298;6.430;2024-02-28T03:52:09;0.60;99.90
35970;DHT22;22448;51.298;6.430;2024-02-28T03:54:36;0.60;99.90
35970;DHT22;22448;51.298;6.430;2024-02-28T03:57:03;0.70;99.90
35970;DHT22;22448;51.298;6.430;2024-02-28T03:59:30;0.70;99.90
35970;DHT22;22448;51.298;6.430;2024-02-28T04:01:57;0.70;99.90
35970;DHT22;22448;51.298;6.430;2024-02-28T04:04:24;0.80;99.90
35970;DHT22;22448;51.298;6.430;2024-02-28T04:06:52;0.80;99.90
35970;DHT22;22448;51.298;6.430;2024-02-28T04:09:19;0.80;99.90
35970;DHT22;22448;51.298;6.430;2024-02-28T04:11:47;0.90;99.90
35970;DHT22;22448;51.298;6.430;2024-02-28T04:14:14;1.00;99.90
35970;DHT22;22448;51.298;6.430;2024-02-28T04:16:42;1.00;99.90
35970;DHT22;22448;51.298;6.430;2024-02-28T04:19:11;1.10;99.90
35970;DHT22;22448;51.298;6.430;2024-02-28T04:21:38;1.10;99.90
35970;DHT22;22448;51.298;6.430;2024-02-28T04:24:08;1.20;99.90
35970;DHT22;22448;51.298;6.430;2024-02-28T04:26:42;1.10;99.90
35970;DHT22;22448;51.298;6.430;2024-02-28T04:29:09;1.20;99.90
35970;DHT22;22448;51.298;6.430;2024-02-28T04:31:40;1.30;99.90
35970;DHT22;22448;51.298;6.430;2024-02-28T04:34:07;1.30;99.90
35970;DHT22;22448;51.298;6.430;2024-02-28T04:36:35;1.30;99.90
35970;DHT22;22448;51.298;6.430;2024-02-28T04:39:02;1.30;99.90
35970;DHT22;22448;51.298;6.430;2024-02-28T04:41:30;1.30;99.90
35970;DHT22;22448;51.298;6.430;2024-02-28T04:43:57;1.30;99.90
35970;DHT22;22448;51.298;6.430;2024-02-28T04:46:24;1.30;99.90
35970;DHT22;22448;51.298;6.430;2024-02-28T04:48:52;1.30;99.90
35970;DHT22;22448;51.298;6.430;2024-02-28T04:51:19;1.30;99.90
35970;DHT22;22448;51.298;6.430;2024-02-28T04:53:46;1.30;99.90
35970;DHT22;22448;51.298;6.430;2024-02-28T04:56:13;1.30;99.90
35970;DHT22;22448;51.298;6.430;2024-02-28T04:58:40;1.20;99.90
35970;DHT22;22448;51.298;6.430;2024-02-28T05:01:07;1.20;99.90
35970;DHT22;22448;51.298;6.430;2024-02-28T05:03:34;1.20;99.90
35970;DHT22;22448;51.298;6.430;2024-02-28T05:06:01;1.10;99.90
35970;DHT22;22448;51.298;6.430;2024-02-28T05:08:29;1.10;99.90
35970;DHT22;22448;51.298;6.430;2024-02-28T05:10:56;1.10;99.90
35970;DHT22;22448;51.298;6.430;2024-02-28T05:13:23;1.10;99.90
35970;DHT22;22448;51.298;6.430;2024-02-28T05:15:51;1.10;99.90
35970;DHT22;22448;51.298;6.430;2024-02-28T05:18:18;1.10;99.90
35970;DHT22;22448;51.298;6.430;2024-02-28T05:20:45;1.10;99.90
35970;DHT22;22448;51.298;6.430;2024-02-28T05:23:12;1.10;99.90
35970;DHT22;22448;51.298;6.430;2024-02-28T05:25:40;1.10;99.90
35970;DHT22;22448;51.298;6.430;2024-02-28T05:28:07;1.10;99.90
35970;DHT22;22448;51.298;6.430;2024-02-28T05:30:34;1.10;99.90
35970;DHT22;22448;51.298;6.430;2024-02-28T05:33:01;1.10;99.90
35970;DHT22;22448;51.298;6.430;2024-02-28T05:35:28;1.10;99.90
35970;DHT22;22448;51.298;6.430;2024-02-28T05:37:55;1.10;99.90
35970;DHT22;22448;51.298;6.430;2024-02-28T05:40:22;1.10;99.90
35970;DHT22;22448;51.298;6.430;2024-02-28T05:42:49;1.10;99.90
35970;DHT22;22448;51.298;6.430;2024-02-28T05:45:17;1.10;99.90
35970;DHT22;22448;51.298;6.430;2024-02-28T05:47:44;1.10;99.90
35970;DHT22;22448;51.298;6.430;2024-02-28T05:50:11;1.20;99.90
35970;DHT22;22448;51.298;6.430;2024-02-28T05:52:42;1.20;99.90
35970;DHT22;22448;51.298;6.430;2024-02-28T05:55:09;1.20;99.90
35970;DHT22;22448;51.298;6.430;2024-02-28T05:57:37;1.20;99.90
35970;DHT22;22448;51.298;6.430;2024-02-28T06:00:05;1.20;99.90
35970;DHT22;22448;51.298;6.430;2024-02-28T06:02:39;1.10;99.90
35970;DHT22;22448;51.298;6.430;2024-02-28T06:05:07;1.10;99.90
35970;DHT22;22448;51.298;6.430;2024-02-28T06:07:35;1.20;99.90
35970;DHT22;22448;51.298;6.430;2024-02-28T06:10:02;1.10;99.90
35970;DHT22;22448;51.298;6.430;2024-02-28T06:12:29;1.20;99.90
35970;DHT22;22448;51.298;6.430;2024-02-28T06:14:56;1.10;99.90
35970;DHT22;22448;51.298;6.430;2024-02-28T06:17:23;1.10;99.90
35970;DHT22;22448;51.298;6.430;2024-02-28T06:19:50;1.10;99.90
35970;DHT22;22448;51.298;6.430;2024-02-28T06:22:18;1.10;99.90
35970;DHT22;22448;51.298;6.430;2024-02-28T06:24:46;1.10;99.90
35970;DHT22;22448;51.298;6.430;2024-02-28T06:27:13;1.10;99.90
35970;DHT22;22448;51.298;6.430;2024-02-28T06:29:40;1.10;99.90
35970;DHT22;22448;51.298;6.430;2024-02-28T06:32:08;1.10;99.90
35970;DHT22;22448;51.298;6.430;2024-02-28T06:34:35;1.10;99.90
35970;DHT22;22448;51.298;6.430;2024-02-28T06:37:02;1.10;99.90
35970;DHT22;22448;51.298;6.430;2024-02-28T06:39:30;1.10;99.90
35970;DHT22;22448;51.298;6.430;2024-02-28T06:41:57;1.10;99.90
35970;DHT22;22448;51.298;6.430;2024-02-28T06:44:24;1.10;99.90
35970;DHT22;22448;51.298;6.430;2024-02-28T06:46:52;1.20;99.90
35970;DHT22;22448;51.298;6.430;2024-02-28T06:49:19;1.20;99.90
35970;DHT22;22448;51.298;6.430;2024-02-28T06:51:46;1.20;99.90
35970;DHT22;22448;51.298;6.430;2024-02-28T06:54:13;1.30;99.90
35970;DHT22;22448;51.298;6.430;2024-02-28T06:56:41;1.30;99.90
35970;DHT22;22448;51.298;6.430;2024-02-28T06:59:07;1.30;99.90
35970;DHT22;22448;51.298;6.430;2024-02-28T07:01:35;1.30;99.90
35970;DHT22;22448;51.298;6.430;2024-02-28T07:04:02;1.40;99.90
35970;DHT22;22448;51.298;6.430;2024-02-28T07:06:29;1.40;99.90
35970;DHT22;22448;51.298;6.430;2024-02-28T07:08:57;1.50;99.90
35970;DHT22;22448;51.298;6.430;2024-02-28T07:11:24;1.60;99.90
35970;DHT22;22448;51.298;6.430;2024-02-28T07:13:52;1.60;99.90
35970;DHT22;22448;51.298;6.430;2024-02-28T07:16:19;1.70;99.90
35970;DHT22;22448;51.298;6.430;2024-02-28T07:18:46;1.70;99.90
35970;DHT22;22448;51.298;6.430;2024-02-28T07:21:13;1.70;99.90
35970;DHT22;22448;51.298;6.430;2024-02-28T07:23:40;1.70;99.90
35970;DHT22;22448;51.298;6.430;2024-02-28T07:26:07;1.80;99.90
35970;DHT22;22448;51.298;6.430;2024-02-28T07:28:48;1.80;99.90
35970;DHT22;22448;51.298;6.430;2024-02-28T07:31:19;1.90;99.90
35970;DHT22;22448;51.298;6.430;2024-02-28T07:33:46;1.90;99.90
35970;DHT22;22448;51.298;6.430;2024-02-28T07:36:13;2.00;99.90
35970;DHT22;22448;51.298;6.430;2024-02-28T07:38:44;2.10;99.90
35970;DHT22;22448;51.298;6.430;2024-02-28T07:41:11;2.10;99.90
35970;DHT22;22448;51.298;6.430;2024-02-28T07:43:42;2.10;99.90
35970;DHT22;22448;51.298;6.430;2024-02-28T07:46:10;2.20;99.90
35970;DHT22;22448;51.298;6.430;2024-02-28T07:48:38;2.20;99.90
35970;DHT22;22448;51.298;6.430;2024-02-28T07:51:09;2.30;99.90
35970;DHT22;22448;51.298;6.430;2024-02-28T07:53:36;2.50;99.90
35970;DHT22;22448;51.298;6.430;2024-02-28T07:56:03;2.60;99.90
35970;DHT22;22448;51.298;6.430;2024-02-28T07:58:30;2.70;99.90
35970;DHT22;22448;51.298;6.430;2024-02-28T08:00:58;2.80;99.90
35970;DHT22;22448;51.298;6.430;2024-02-28T08:03:25;2.90;99.90
35970;DHT22;22448;51.298;6.430;2024-02-28T08:05:52;3.00;99.90
35970;DHT22;22448;51.298;6.430;2024-02-28T08:08:19;3.00;99.90
35970;DHT22;22448;51.298;6.430;2024-02-28T08:10:46;3.10;99.90
35970;DHT22;22448;51.298;6.430;2024-02-28T08:13:16;3.10;99.90
35970;DHT22;22448;51.298;6.430;2024-02-28T08:15:43;3.20;99.90
35970;DHT22;22448;51.298;6.430;2024-02-28T08:18:10;3.20;99.90
35970;DHT22;22448;51.298;6.430;2024-02-28T08:20:40;3.30;99.90
35970;DHT22;22448;51.298;6.430;2024-02-28T08:23:08;3.30;99.90
35970;DHT22;22448;51.298;6.430;2024-02-28T08:25:35;3.40;99.90
35970;DHT22;22448;51.298;6.430;2024-02-28T08:28:02;3.50;99.90
35970;DHT22;22448;51.298;6.430;2024-02-28T08:30:30;3.50;99.90
35970;DHT22;22448;51.298;6.430;2024-02-28T08:32:58;3.50;99.90
35970;DHT22;22448;51.298;6.430;2024-02-28T08:35:25;3.50;99.90
35970;DHT22;22448;51.298;6.430;2024-02-28T08:37:53;3.60;99.90
35970;DHT22;22448;51.298;6.430;2024-02-28T08:40:20;3.50;99.90
35970;DHT22;22448;51.298;6.430;2024-02-28T08:42:47;3.60;99.90
35970;DHT22;22448;51.298;6.430;2024-02-28T08:45:16;3.60;99.90
35970;DHT22;22448;51.298;6.430;2024-02-28T08:47:43;3.70;99.90
35970;DHT22;22448;51.298;6.430;2024-02-28T08:50:11;3.70;99.90
35970;DHT22;22448;51.298;6.430;2024-02-28T08:52:38;3.80;99.90
35970;DHT22;22448;51.298;6.430;2024-02-28T08:55:06;3.80;99.90
35970;DHT22;22448;51.298;6.430;2024-02-28T08:57:33;3.90;99.90
35970;DHT22;22448;51.298;6.430;2024-02-28T09:00:01;3.90;99.90
35970;DHT22;22448;51.298;6.430;2024-02-28T09:02:28;4.00;99.90
35970;DHT22;22448;51.298;6.430;2024-02-28T09:04:55;4.10;99.90
35970;DHT22;22448;51.298;6.430;2024-02-28T09:07:24;4.20;99.90
35970;DHT22;22448;51.298;6.430;2024-02-28T09:09:51;4.20;99.90
35970;DHT22;22448;51.298;6.430;2024-02-28T09:12:18;4.30;99.90
35970;DHT22;22448;51.298;6.430;2024-02-28T09:14:45;4.40;99.90
35970;DHT22;22448;51.298;6.430;2024-02-28T09:17:12;4.60;99.90
35970;DHT22;22448;51.298;6.430;2024-02-28T09:19:40;4.70;99.90
35970;DHT22;22448;51.298;6.430;2024-02-28T09:22:07;4.70;99.90
35970;DHT22;22448;51.298;6.430;2024-02-28T09:24:34;4.80;99.90
35970;DHT22;22448;51.298;6.430;2024-02-28T09:27:03;4.70;99.90
35970;DHT22;22448;51.298;6.430;2024-02-28T09:29:30;4.70;99.90
35970;DHT22;22448;51.298;6.430;2024-02-28T09:31:57;4.60;99.90
35970;DHT22;22448;51.298;6.430;2024-02-28T09:34:24;4.60;99.90
35970;DHT22;22448;51.298;6.430;2024-02-28T09:36:52;4.60;99.90
35970;DHT22;22448;51.298;6.430;2024-02-28T09:39:19;4.70;99.90
35970;DHT22;22448;51.298;6.430;2024-02-28T09:41:48;4.80;99.90
35970;DHT22;22448;51.298;6.430;2024-02-28T09:44:19;4.80;99.90
35970;DHT22;22448;51.298;6.430;2024-02-28T09:46:50;5.10;99.90
35970;DHT22;22448;51.298;6.430;2024-02-28T09:49:19;5.20;99.90
35970;DHT22;22448;51.298;6.430;2024-02-28T09:51:49;5.20;99.90
35970;DHT22;22448;51.298;6.430;2024-02-28T09:54:18;5.20;99.90
35970;DHT22;22448;51.298;6.430;2024-02-28T09:56:47;5.30;99.90
35970;DHT22;22448;51.298;6.430;2024-02-28T09:59:16;5.40;99.90
35970;DHT22;22448;51.298;6.430;2024-02-28T10:01:49;5.50;99.90
35970;DHT22;22448;51.298;6.430;2024-02-28T10:04:20;5.60;99.90
35970;DHT22;22448;51.298;6.430;2024-02-28T10:06:47;5.60;99.90
35970;DHT22;22448;51.298;6.430;2024-02-28T10:09:16;5.60;99.90
35970;DHT22;22448;51.298;6.430;2024-02-28T10:11:45;5.70;99.90
35970;DHT22;22448;51.298;6.430;2024-02-28T10:14:18;5.80;99.90
35970;DHT22;22448;51.298;6.430;2024-02-28T10:16:46;6.00;99.90
35970;DHT22;22448;51.298;6.430;2024-02-28T10:19:13;6.00;99.90
35970;DHT22;22448;51.298;6.430;2024-02-28T10:21:40;6.00;99.90
35970;DHT22;22448;51.298;6.430;2024-02-28T10:24:07;6.10;99.90
35970;DHT22;22448;51.298;6.430;2024-02-28T10:26:42;6.20;99.90
35970;DHT22;22448;51.298;6.430;2024-02-28T10:29:09;6.30;99.90
35970;DHT22;22448;51.298;6.430;2024-02-28T10:31:38;6.30;99.90
35970;DHT22;22448;51.298;6.430;2024-02-28T10:34:07;6.30;99.90
35970;DHT22;22448;51.298;6.430;2024-02-28T10:36:36;6.20;99.90
35970;DHT22;22448;51.298;6.430;2024-02-28T10:39:05;6.20;99.90
35970;DHT22;22448;51.298;6.430;2024-02-28T10:41:34;6.10;99.90
35970;DHT22;22448;51.298;6.430;2024-02-28T10:44:02;6.00;99.90
35970;DHT22;22448;51.298;6.430;2024-02-28T10:46:30;6.10;99.90
35970;DHT22;22448;51.298;6.430;2024-02-28T10:49:03;6.00;99.90
35970;DHT22;22448;51.298;6.430;2024-02-28T10:51:34;6.10;99.90
35970;DHT22;22448;51.298;6.430;2024-02-28T10:54:12;6.10;99.90
35970;DHT22;22448;51.298;6.430;2024-02-28T10:56:42;6.10;99.90
35970;DHT22;22448;51.298;6.430;2024-02-28T10:59:11;6.20;99.90
35970;DHT22;22448;51.298;6.430;2024-02-28T11:01:43;6.40;99.90
35970;DHT22;22448;51.298;6.430;2024-02-28T11:04:13;6.50;99.90
35970;DHT22;22448;51.298;6.430;2024-02-28T11:06:53;6.60;99.90
35970;DHT22;22448;51.298;6.430;2024-02-28T11:09:22;6.70;99.90
35970;DHT22;22448;51.298;6.430;2024-02-28T11:11:50;6.80;99.90
35970;DHT22;22448;51.298;6.430;2024-02-28T11:14:22;6.80;99.90
35970;DHT22;22448;51.298;6.430;2024-02-28T11:17:02;6.80;99.90
35970;DHT22;22448;51.298;6.430;2024-02-28T11:19:30;6.90;99.90
35970;DHT22;22448;51.298;6.430;2024-02-28T11:22:02;6.90;99.90
35970;DHT22;22448;51.298;6.430;2024-02-28T11:24:33;7.00;99.90
35970;DHT22;22448;51.298;6.430;2024-02-28T11:27:01;7.10;99.90
35970;DHT22;22448;51.298;6.430;2024-02-28T11:29:30;7.20;99.90
35970;DHT22;22448;51.298;6.430;2024-02-28T11:31:58;7.30;99.90
35970;DHT22;22448;51.298;6.430;2024-02-28T11:34:25;7.30;99.90
35970;DHT22;22448;51.298;6.430;2024-02-28T11:36:52;7.30;99.90
35970;DHT22;22448;51.298;6.430;2024-02-28T11:39:23;7.30;99.90
35970;DHT22;22448;51.298;6.430;2024-02-28T11:41:54;7.40;99.90
35970;DHT22;22448;51.298;6.430;2024-02-28T11:44:21;7.60;99.90
35970;DHT22;22448;51.298;6.430;2024-02-28T11:46:49;7.70;99.90
35970;DHT22;22448;51.298;6.430;2024-02-28T11:49:17;7.90;99.90
35970;DHT22;22448;51.298;6.430;2024-02-28T11:51:45;8.10;99.90
35970;DHT22;22448;51.298;6.430;2024-02-28T11:54:12;8.30;99.90
35970;DHT22;22448;51.298;6.430;2024-02-28T11:56:40;8.30;99.90
35970;DHT22;22448;51.298;6.430;2024-02-28T11:59:11;8.50;99.90
35970;DHT22;22448;51.298;6.430;2024-02-28T12:01:41;8.60;99.90
35970;DHT22;22448;51.298;6.430;2024-02-28T12:04:09;8.60;99.90
35970;DHT22;22448;51.298;6.430;2024-02-28T12:06:37;8.50;99.90
35970;DHT22;22448;51.298;6.430;2024-02-28T12:09:10;8.50;99.90
35970;DHT22;22448;51.298;6.430;2024-02-28T12:11:45;8.50;99.90
35970;DHT22;22448;51.298;6.430;2024-02-28T12:14:13;8.50;99.90
35970;DHT22;22448;51.298;6.430;2024-02-28T12:16:40;8.60;99.90
35970;DHT22;22448;51.298;6.430;2024-02-28T12:19:08;8.60;99.90
35970;DHT22;22448;51.298;6.430;2024-02-28T12:21:37;8.60;99.90
35970;DHT22;22448;51.298;6.430;2024-02-28T12:24:07;8.70;99.90
35970;DHT22;22448;51.298;6.430;2024-02-28T12:26:36;8.70;99.90
35970;DHT22;22448;51.298;6.430;2024-02-28T12:29:03;8.80;99.90
35970;DHT22;22448;51.298;6.430;2024-02-28T12:31:30;8.80;99.90
35970;DHT22;22448;51.298;6.430;2024-02-28T12:33:57;8.80;99.90
35970;DHT22;22448;51.298;6.430;2024-02-28T12:36:25;8.90;99.90
35970;DHT22;22448;51.298;6.430;2024-02-28T12:38:53;8.90;99.90
35970;DHT22;22448;51.298;6.430;2024-02-28T12:41:20;9.00;99.90
35970;DHT22;22448;51.298;6.430;2024-02-28T12:43:47;8.90;99.90
35970;DHT22;22448;51.298;6.430;2024-02-28T12:46:15;8.90;99.90
35970;DHT22;22448;51.298;6.430;2024-02-28T12:48:42;8.90;99.90
35970;DHT22;22448;51.298;6.430;2024-02-28T12:51:20;8.90;99.90
35970;DHT22;22448;51.298;6.430;2024-02-28T12:53:47;8.90;99.90
35970;DHT22;22448;51.298;6.430;2024-02-28T12:56:18;9.00;99.90
35970;DHT22;22448;51.298;6.430;2024-02-28T12:58:45;8.90;99.90
35970;DHT22;22448;51.298;6.430;2024-02-28T13:01:12;9.00;99.90
35970;DHT22;22448;51.298;6.430;2024-02-28T13:03:39;9.20;99.90
35970;DHT22;22448;51.298;6.430;2024-02-28T13:06:05;9.30;99.90
35970;DHT22;22448;51.298;6.430;2024-02-28T13:08:32;9.50;99.90
35970;DHT22;22448;51.298;6.430;2024-02-28T13:11:00;9.60;99.90
35970;DHT22;22448;51.298;6.430;2024-02-28T13:13:27;9.60;99.90
35970;DHT22;22448;51.298;6.430;2024-02-28T13:15:54;9.60;99.90
35970;DHT22;22448;51.298;6.430;2024-02-28T13:18:21;9.70;99.90
35970;DHT22;22448;51.298;6.430;2024-02-28T13:20:49;9.60;99.90
35970;DHT22;22448;51.298;6.430;2024-02-28T13:23:15;9.60;99.90
35970;DHT22;22448;51.298;6.430;2024-02-28T13:25:43;9.60;99.90
35970;DHT22;22448;51.298;6.430;2024-02-28T13:28:10;9.60;99.90
35970;DHT22;22448;51.298;6.430;2024-02-28T13:30:37;9.60;99.90
35970;DHT22;22448;51.298;6.430;2024-02-28T13:33:04;9.60;99.90
35970;DHT22;22448;51.298;6.430;2024-02-28T13:35:32;9.70;99.90
35970;DHT22;22448;51.298;6.430;2024-02-28T13:37:59;9.70;99.90
35970;DHT22;22448;51.298;6.430;2024-02-28T13:40:27;9.60;99.90
35970;DHT22;22448;51.298;6.430;2024-02-28T13:42:54;9.60;99.90
35970;DHT22;22448;51.298;6.430;2024-02-28T13:45:21;9.60;99.90
35970;DHT22;22448;51.298;6.430;2024-02-28T13:47:49;9.70;99.90
35970;DHT22;22448;51.298;6.430;2024-02-28T13:50:16;9.80;99.90
35970;DHT22;22448;51.298;6.430;2024-02-28T13:52:43;9.80;99.90
35970;DHT22;22448;51.298;6.430;2024-02-28T13:55:10;10.00;99.90
35970;DHT22;22448;51.298;6.430;2024-02-28T13:57:37;10.00;99.90
35970;DHT22;22448;51.298;6.430;2024-02-28T14:00:05;10.10;99.90
35970;DHT22;22448;51.298;6.430;2024-02-28T14:02:36;10.00;99.90
35970;DHT22;22448;51.298;6.430;2024-02-28T14:05:04;10.00;99.90
35970;DHT22;22448;51.298;6.430;2024-02-28T14:07:31;10.10;99.90
35970;DHT22;22448;51.298;6.430;2024-02-28T14:09:58;10.20;99.90
35970;DHT22;22448;51.298;6.430;2024-02-28T14:12:25;10.30;99.90
35970;DHT22;22448;51.298;6.430;2024-02-28T14:14:53;10.30;99.90
35970;DHT22;22448;51.298;6.430;2024-02-28T14:17:20;10.20;99.90
35970;DHT22;22448;51.298;6.430;2024-02-28T14:19:47;10.20;99.90
35970;DHT22;22448;51.298;6.430;2024-02-28T14:22:15;10.20;99.90
35970;DHT22;22448;51.298;6.430;2024-02-28T14:24:42;10.20;99.90
35970;DHT22;22448;51.298;6.430;2024-02-28T14:27:09;10.10;99.90
35970;DHT22;22448;51.298;6.430;2024-02-28T14:29:36;10.10;99.90
35970;DHT22;22448;51.298;6.430;2024-02-28T14:32:04;10.10;99.90
35970;DHT22;22448;51.298;6.430;2024-02-28T14:34:33;10.20;99.90
35970;DHT22;22448;51.298;6.430;2024-02-28T14:37:02;10.30;99.90
35970;DHT22;22448;51.298;6.430;2024-02-28T14:39:31;10.30;99.90
35970;DHT22;22448;51.298;6.430;2024-02-28T14:41:58;10.50;99.90
35970;DHT22;22448;51.298;6.430;2024-02-28T14:44:25;10.60;99.90
35970;DHT22;22448;51.298;6.430;2024-02-28T14:46:56;10.60;99.90
35970;DHT22;22448;51.298;6.430;2024-02-28T14:49:24;10.50;99.90
35970;DHT22;22448;51.298;6.430;2024-02-28T14:51:51;10.40;99.90
35970;DHT22;22448;51.298;6.430;2024-02-28T14:54:18;10.30;99.90
35970;DHT22;22448;51.298;6.430;2024-02-28T14:56:49;10.30;99.90
35970;DHT22;22448;51.298;6.430;2024-02-28T14:59:16;10.30;99.90
35970;DHT22;22448;51.298;6.430;2024-02-28T15:01:43;10.20;99.90
35970;DHT22;22448;51.298;6.430;2024-02-28T15:04:11;10.20;99.90
35970;DHT22;22448;51.298;6.430;2024-02-28T15:06:41;10.20;99.90
35970;DHT22;22448;51.298;6.430;2024-02-28T15:09:09;10.10;99.90
35970;DHT22;22448;51.298;6.430;2024-02-28T15:11:36;10.00;99.90
35970;DHT22;22448;51.298;6.430;2024-02-28T15:14:03;10.00;99.90
35970;DHT22;22448;51.298;6.430;2024-02-28T15:16:30;9.90;99.90
35970;DHT22;22448;51.298;6.430;2024-02-28T15:18:58;9.90;99.90
35970;DHT22;22448;51.298;6.430;2024-02-28T15:21:25;9.90;99.90
35970;DHT22;22448;51.298;6.430;2024-02-28T15:23:53;10.00;99.90
35970;DHT22;22448;51.298;6.430;2024-02-28T15:26:20;10.00;99.90
35970;DHT22;22448;51.298;6.430;2024-02-28T15:29:01;9.90;99.90
35970;DHT22;22448;51.298;6.430;2024-02-28T15:31:28;9.90;99.90
35970;DHT22;22448;51.298;6.430;2024-02-28T15:33:55;9.90;99.90
35970;DHT22;22448;51.298;6.430;2024-02-28T15:36:22;9.80;99.90
35970;DHT22;22448;51.298;6.430;2024-02-28T15:38:49;9.70;99.90
35970;DHT22;22448;51.298;6.430;2024-02-28T15:41:16;9.60;99.90
35970;DHT22;22448;51.298;6.430;2024-02-28T15:43:44;9.50;99.90
35970;DHT22;22448;51.298;6.430;2024-02-28T15:46:11;9.50;99.90